4AL3 weather

CLOSED Wallace State College Heliport
Hanceville, Alabama, United States

Public forecast

Using degrees Fahrenheit for public forecast. Weather courtesy of forecast.io.

Closest aviation weather report (METAR) to Wallace State College Heliport

Closest report is Cullman Regional Airport-Folsom Field, 12.6 nm (23.3 km) NNW. Retrieved 2019/10/18 22:35 UTC (14 minutes ago):

KCMD 182235Z AUTO 00000KT 10SM CLR 16/05 A2996 RMK AO2 T01610050

Closest aviation forecast (TAF) to Wallace State College Heliport

Closest forecast is Birmingham-Shuttlesworth International Airport, 30.3 nm (56.1 km) S. Retrieved 2019/10/18 18:22 UTC (4 hours ago):

TAF KBHM 181720Z 1818/1918 11008KT P6SM SCT150 BKN250 FM191300 08008KT P6SM SHRA OVC040